sensor_id;sensor_type;location;lat;lon;timestamp;pressure;altitude;pressure_sealevel;temperature;humidity
80248;BME280;69560;52.206;21.018;2023-07-29T00:00:00;99410.73;;;19.41;67.61
80248;BME280;69560;52.206;21.018;2023-07-29T00:02:26;99415.98;;;19.41;67.63
80248;BME280;69560;52.206;21.018;2023-07-29T00:04:56;99415.94;;;19.42;67.82
80248;BME280;69560;52.206;21.018;2023-07-29T00:07:22;99423.55;;;19.43;67.80
80248;BME280;69560;52.206;21.018;2023-07-29T00:09:48;99427.07;;;19.44;67.86
80248;BME280;69560;52.206;21.018;2023-07-29T00:12:15;99426.48;;;19.44;67.89
80248;BME280;69560;52.206;21.018;2023-07-29T00:14:41;99422.35;;;19.42;67.72
80248;BME280;69560;52.206;21.018;2023-07-29T00:17:08;99423.81;;;19.42;67.83
80248;BME280;69560;52.206;21.018;2023-07-29T00:19:34;99428.02;;;19.44;67.87
80248;BME280;69560;52.206;21.018;2023-07-29T00:22:01;99428.98;;;19.44;67.87
80248;BME280;69560;52.206;21.018;2023-07-29T00:24:27;99431.77;;;19.45;68.08
80248;BME280;69560;52.206;21.018;2023-07-29T00:26:53;99433.54;;;19.48;68.00
80248;BME280;69560;52.206;21.018;2023-07-29T00:29:20;99438.50;;;19.51;68.05
80248;BME280;69560;52.206;21.018;2023-07-29T00:31:46;99440.37;;;19.50;67.92
80248;BME280;69560;52.206;21.018;2023-07-29T00:34:12;99438.32;;;19.49;67.78
80248;BME280;69560;52.206;21.018;2023-07-29T00:36:43;99439.29;;;19.46;68.00
80248;BME280;69560;52.206;21.018;2023-07-29T00:39:09;99444.08;;;19.47;67.98
80248;BME280;69560;52.206;21.018;2023-07-29T00:41:36;99442.67;;;19.49;68.08
80248;BME280;69560;52.206;21.018;2023-07-29T00:44:03;99446.38;;;19.50;68.10
80248;BME280;69560;52.206;21.018;2023-07-29T00:46:29;99445.08;;;19.51;67.89
80248;BME280;69560;52.206;21.018;2023-07-29T00:48:56;99447.41;;;19.51;67.85
80248;BME280;69560;52.206;21.018;2023-07-29T00:51:22;99447.02;;;19.51;67.88
80248;BME280;69560;52.206;21.018;2023-07-29T00:53:49;99448.20;;;19.51;67.88
80248;BME280;69560;52.206;21.018;2023-07-29T00:56:15;99449.45;;;19.53;68.06
80248;BME280;69560;52.206;21.018;2023-07-29T00:58:42;99451.81;;;19.52;67.78
80248;BME280;69560;52.206;21.018;2023-07-29T01:01:09;99451.13;;;19.50;67.97
80248;BME280;69560;52.206;21.018;2023-07-29T01:03:35;99451.32;;;19.49;67.81
80248;BME280;69560;52.206;21.018;2023-07-29T01:09:04;99449.69;;;19.50;67.92
80248;BME280;69560;52.206;21.018;2023-07-29T01:14:21;99446.27;;;19.49;67.74
80248;BME280;69560;52.206;21.018;2023-07-29T01:16:53;99446.10;;;19.46;67.82
80248;BME280;69560;52.206;21.018;2023-07-29T01:22:01;99451.23;;;19.44;67.91
80248;BME280;69560;52.206;21.018;2023-07-29T01:24:29;99454.08;;;19.43;67.77
80248;BME280;69560;52.206;21.018;2023-07-29T01:26:55;99462.80;;;19.44;67.80
80248;BME280;69560;52.206;21.018;2023-07-29T01:29:21;99459.32;;;19.42;67.76
80248;BME280;69560;52.206;21.018;2023-07-29T01:31:51;99460.70;;;19.42;67.63
80248;BME280;69560;52.206;21.018;2023-07-29T01:34:28;99466.99;;;19.43;67.64
80248;BME280;69560;52.206;21.018;2023-07-29T01:36:57;99466.96;;;19.42;67.65
80248;BME280;69560;52.206;21.018;2023-07-29T01:39:26;99468.98;;;19.39;67.56
80248;BME280;69560;52.206;21.018;2023-07-29T01:41:55;99468.25;;;19.36;67.41
80248;BME280;69560;52.206;21.018;2023-07-29T01:44:21;99473.27;;;19.35;67.58
80248;BME280;69560;52.206;21.018;2023-07-29T01:46:49;99471.04;;;19.34;67.58
80248;BME280;69560;52.206;21.018;2023-07-29T01:49:16;99472.65;;;19.34;67.50
80248;BME280;69560;52.206;21.018;2023-07-29T01:51:42;99473.39;;;19.33;67.15
80248;BME280;69560;52.206;21.018;2023-07-29T01:54:09;99474.20;;;19.29;67.24
80248;BME280;69560;52.206;21.018;2023-07-29T01:56:36;99474.12;;;19.27;67.24
80248;BME280;69560;52.206;21.018;2023-07-29T01:59:03;99481.13;;;19.23;67.18
80248;BME280;69560;52.206;21.018;2023-07-29T02:01:30;99478.42;;;19.19;67.36
80248;BME280;69560;52.206;21.018;2023-07-29T02:03:57;99479.64;;;19.16;67.20
80248;BME280;69560;52.206;21.018;2023-07-29T02:06:23;99480.77;;;19.10;67.06
80248;BME280;69560;52.206;21.018;2023-07-29T02:08:51;99483.27;;;19.07;67.00
80248;BME280;69560;52.206;21.018;2023-07-29T02:11:17;99484.20;;;19.05;67.24
80248;BME280;69560;52.206;21.018;2023-07-29T02:13:46;99482.86;;;19.01;67.24
80248;BME280;69560;52.206;21.018;2023-07-29T02:16:12;99483.94;;;18.97;67.31
80248;BME280;69560;52.206;21.018;2023-07-29T02:18:39;99488.34;;;18.93;67.33
80248;BME280;69560;52.206;21.018;2023-07-29T02:21:05;99490.45;;;18.91;67.49
80248;BME280;69560;52.206;21.018;2023-07-29T02:23:32;99491.18;;;18.90;67.46
80248;BME280;69560;52.206;21.018;2023-07-29T02:25:59;99490.88;;;18.86;67.16
80248;BME280;69560;52.206;21.018;2023-07-29T02:28:26;99493.13;;;18.83;67.37
80248;BME280;69560;52.206;21.018;2023-07-29T02:31:21;99498.29;;;18.79;67.22
80248;BME280;69560;52.206;21.018;2023-07-29T02:33:48;99496.07;;;18.75;67.43
80248;BME280;69560;52.206;21.018;2023-07-29T02:36:16;99497.02;;;18.72;67.49
80248;BME280;69560;52.206;21.018;2023-07-29T02:38:43;99496.19;;;18.70;67.45
80248;BME280;69560;52.206;21.018;2023-07-29T02:41:10;99493.13;;;18.68;67.47
80248;BME280;69560;52.206;21.018;2023-07-29T02:43:39;99488.48;;;18.68;67.53
80248;BME280;69560;52.206;21.018;2023-07-29T02:46:07;99490.42;;;18.67;67.56
80248;BME280;69560;52.206;21.018;2023-07-29T02:48:33;99489.42;;;18.65;67.52
80248;BME280;69560;52.206;21.018;2023-07-29T02:50:59;99492.02;;;18.61;67.46
80248;BME280;69560;52.206;21.018;2023-07-29T02:53:26;99494.77;;;18.57;67.55
80248;BME280;69560;52.206;21.018;2023-07-29T02:55:52;99501.34;;;18.54;67.35
80248;BME280;69560;52.206;21.018;2023-07-29T02:58:19;99502.48;;;18.50;67.43
80248;BME280;69560;52.206;21.018;2023-07-29T03:00:45;99504.89;;;18.47;67.38
80248;BME280;69560;52.206;21.018;2023-07-29T03:03:14;99509.43;;;18.40;67.14
80248;BME280;69560;52.206;21.018;2023-07-29T03:05:40;99511.48;;;18.35;67.27
80248;BME280;69560;52.206;21.018;2023-07-29T03:08:06;99515.66;;;18.31;67.43
80248;BME280;69560;52.206;21.018;2023-07-29T03:10:35;99514.79;;;18.27;67.51
80248;BME280;69560;52.206;21.018;2023-07-29T03:13:02;99516.64;;;18.27;67.60
80248;BME280;69560;52.206;21.018;2023-07-29T03:15:29;99514.48;;;18.27;67.78
80248;BME280;69560;52.206;21.018;2023-07-29T03:17:55;99516.98;;;18.23;67.59
80248;BME280;69560;52.206;21.018;2023-07-29T03:20:22;99517.62;;;18.19;67.74
80248;BME280;69560;52.206;21.018;2023-07-29T03:22:48;99517.81;;;18.17;67.60
80248;BME280;69560;52.206;21.018;2023-07-29T03:25:15;99519.13;;;18.13;67.77
80248;BME280;69560;52.206;21.018;2023-07-29T03:27:41;99520.19;;;18.09;67.76
80248;BME280;69560;52.206;21.018;2023-07-29T03:30:08;99520.38;;;18.07;68.00
80248;BME280;69560;52.206;21.018;2023-07-29T03:32:35;99521.90;;;18.07;68.21
80248;BME280;69560;52.206;21.018;2023-07-29T03:35:01;99525.77;;;18.06;68.19
80248;BME280;69560;52.206;21.018;2023-07-29T03:37:28;99528.81;;;18.06;68.28
80248;BME280;69560;52.206;21.018;2023-07-29T03:39:54;99530.80;;;18.07;68.18
80248;BME280;69560;52.206;21.018;2023-07-29T03:42:21;99534.84;;;18.10;68.38
80248;BME280;69560;52.206;21.018;2023-07-29T03:44:47;99533.48;;;18.14;68.49
80248;BME280;69560;52.206;21.018;2023-07-29T03:47:13;99536.65;;;18.15;68.23
80248;BME280;69560;52.206;21.018;2023-07-29T03:49:40;99536.02;;;18.14;68.39
80248;BME280;69560;52.206;21.018;2023-07-29T03:52:06;99535.53;;;18.14;68.46
80248;BME280;69560;52.206;21.018;2023-07-29T03:54:33;99535.79;;;18.17;68.55
80248;BME280;69560;52.206;21.018;2023-07-29T03:56:59;99538.77;;;18.21;68.46
80248;BME280;69560;52.206;21.018;2023-07-29T03:59:26;99537.25;;;18.24;68.51
80248;BME280;69560;52.206;21.018;2023-07-29T04:01:52;99541.60;;;18.27;68.50
80248;BME280;69560;52.206;21.018;2023-07-29T04:04:18;99545.30;;;18.30;68.42
80248;BME280;69560;52.206;21.018;2023-07-29T04:06:45;99539.08;;;18.35;68.53
80248;BME280;69560;52.206;21.018;2023-07-29T04:09:11;99543.40;;;18.35;68.31
80248;BME280;69560;52.206;21.018;2023-07-29T04:11:38;99545.89;;;18.35;68.43
80248;BME280;69560;52.206;21.018;2023-07-29T04:14:05;99544.98;;;18.36;68.52
80248;BME280;69560;52.206;21.018;2023-07-29T04:16:31;99546.64;;;18.38;68.38
80248;BME280;69560;52.206;21.018;2023-07-29T04:18:57;99552.34;;;18.41;68.46
80248;BME280;69560;52.206;21.018;2023-07-29T04:21:24;99555.09;;;18.44;68.41
80248;BME280;69560;52.206;21.018;2023-07-29T04:23:50;99559.05;;;18.47;68.52
80248;BME280;69560;52.206;21.018;2023-07-29T04:26:17;99558.64;;;18.50;68.57
80248;BME280;69560;52.206;21.018;2023-07-29T04:28:43;99561.55;;;18.52;68.51
80248;BME280;69560;52.206;21.018;2023-07-29T04:31:10;99565.14;;;18.53;68.44
80248;BME280;69560;52.206;21.018;2023-07-29T04:33:36;99571.02;;;18.52;68.35
80248;BME280;69560;52.206;21.018;2023-07-29T04:36:03;99572.77;;;18.53;68.41
80248;BME280;69560;52.206;21.018;2023-07-29T04:38:32;99574.13;;;18.53;68.27
80248;BME280;69560;52.206;21.018;2023-07-29T04:40:59;99578.98;;;18.55;68.37
80248;BME280;69560;52.206;21.018;2023-07-29T04:43:31;99580.73;;;18.56;68.28
80248;BME280;69560;52.206;21.018;2023-07-29T04:45:58;99587.61;;;18.53;68.14
80248;BME280;69560;52.206;21.018;2023-07-29T04:48:25;99590.39;;;18.52;68.34
80248;BME280;69560;52.206;21.018;2023-07-29T04:50:51;99593.54;;;18.56;68.47
80248;BME280;69560;52.206;21.018;2023-07-29T04:53:18;99596.23;;;18.62;68.66
80248;BME280;69560;52.206;21.018;2023-07-29T04:55:45;99594.68;;;18.69;68.63
80248;BME280;69560;52.206;21.018;2023-07-29T04:58:12;99599.06;;;18.74;68.36
80248;BME280;69560;52.206;21.018;2023-07-29T05:00:38;99602.66;;;18.78;68.42
80248;BME280;69560;52.206;21.018;2023-07-29T05:03:05;99606.67;;;18.84;68.40
80248;BME280;69560;52.206;21.018;2023-07-29T05:05:31;99606.34;;;18.85;68.35
80248;BME280;69560;52.206;21.018;2023-07-29T05:07:57;99604.84;;;18.84;67.95
80248;BME280;69560;52.206;21.018;2023-07-29T05:10:24;99608.81;;;18.83;68.12
80248;BME280;69560;52.206;21.018;2023-07-29T05:12:51;99609.62;;;18.82;68.12
80248;BME280;69560;52.206;21.018;2023-07-29T05:15:17;99612.85;;;18.88;68.09
80248;BME280;69560;52.206;21.018;2023-07-29T05:17:45;99610.89;;;18.95;68.29
80248;BME280;69560;52.206;21.018;2023-07-29T05:20:11;99612.13;;;19.04;68.32
80248;BME280;69560;52.206;21.018;2023-07-29T05:22:38;99612.36;;;19.11;68.35
80248;BME280;69560;52.206;21.018;2023-07-29T05:25:05;99612.35;;;19.18;68.16
80248;BME280;69560;52.206;21.018;2023-07-29T05:27:31;99615.77;;;19.23;68.23
80248;BME280;69560;52.206;21.018;2023-07-29T05:29:58;99616.34;;;19.25;68.03
80248;BME280;69560;52.206;21.018;2023-07-29T05:32:24;99615.30;;;19.28;67.84
80248;BME280;69560;52.206;21.018;2023-07-29T05:34:51;99615.02;;;19.30;67.90
80248;BME280;69560;52.206;21.018;2023-07-29T05:37:17;99614.24;;;19.32;67.75
80248;BME280;69560;52.206;21.018;2023-07-29T05:39:44;99614.77;;;19.34;67.68
80248;BME280;69560;52.206;21.018;2023-07-29T05:42:10;99611.64;;;19.34;67.64
80248;BME280;69560;52.206;21.018;2023-07-29T05:44:36;99610.70;;;19.36;67.61
80248;BME280;69560;52.206;21.018;2023-07-29T05:47:03;99605.17;;;19.35;67.61
80248;BME280;69560;52.206;21.018;2023-07-29T05:49:29;99603.66;;;19.38;67.54
80248;BME280;69560;52.206;21.018;2023-07-29T05:51:56;99609.50;;;19.45;67.77
80248;BME280;69560;52.206;21.018;2023-07-29T05:54:22;99613.67;;;19.54;67.77
80248;BME280;69560;52.206;21.018;2023-07-29T05:56:49;99614.84;;;19.67;67.93
80248;BME280;69560;52.206;21.018;2023-07-29T05:59:15;99620.08;;;19.81;67.87
80248;BME280;69560;52.206;21.018;2023-07-29T06:01:42;99622.91;;;19.92;67.82
80248;BME280;69560;52.206;21.018;2023-07-29T06:04:08;99626.66;;;20.01;67.61
80248;BME280;69560;52.206;21.018;2023-07-29T06:06:34;99628.15;;;20.08;67.49
80248;BME280;69560;52.206;21.018;2023-07-29T06:09:01;99630.50;;;20.16;67.50
80248;BME280;69560;52.206;21.018;2023-07-29T06:11:27;99636.69;;;20.23;67.17
80248;BME280;69560;52.206;21.018;2023-07-29T06:13:54;99640.77;;;20.26;67.04
80248;BME280;69560;52.206;21.018;2023-07-29T06:16:20;99643.63;;;20.27;66.68
80248;BME280;69560;52.206;21.018;2023-07-29T06:18:47;99641.48;;;20.26;66.66
80248;BME280;69560;52.206;21.018;2023-07-29T06:21:13;99651.59;;;20.27;66.44
80248;BME280;69560;52.206;21.018;2023-07-29T06:23:43;99653.46;;;20.21;66.26
80248;BME280;69560;52.206;21.018;2023-07-29T06:26:10;99655.63;;;20.18;66.24
80248;BME280;69560;52.206;21.018;2023-07-29T06:28:36;99655.93;;;20.13;66.02
80248;BME280;69560;52.206;21.018;2023-07-29T06:31:02;99659.40;;;20.07;65.83
80248;BME280;69560;52.206;21.018;2023-07-29T06:33:29;99664.67;;;20.00;65.76
80248;BME280;69560;52.206;21.018;2023-07-29T06:35:55;99664.11;;;19.97;65.76
80248;BME280;69560;52.206;21.018;2023-07-29T06:38:22;99666.77;;;19.93;65.83
80248;BME280;69560;52.206;21.018;2023-07-29T06:40:48;99671.13;;;19.93;66.03
80248;BME280;69560;52.206;21.018;2023-07-29T06:43:15;99672.89;;;19.96;66.24
80248;BME280;69560;52.206;21.018;2023-07-29T06:45:42;99676.91;;;19.99;66.18
80248;BME280;69560;52.206;21.018;2023-07-29T06:48:09;99678.42;;;20.02;66.13
80248;BME280;69560;52.206;21.018;2023-07-29T06:50:35;99674.94;;;20.00;65.96
80248;BME280;69560;52.206;21.018;2023-07-29T06:53:02;99673.42;;;20.02;65.95
80248;BME280;69560;52.206;21.018;2023-07-29T06:55:29;99670.86;;;20.00;65.68
80248;BME280;69560;52.206;21.018;2023-07-29T06:57:55;99673.52;;;19.96;65.69
80248;BME280;69560;52.206;21.018;2023-07-29T07:00:22;99675.55;;;19.96;65.77
80248;BME280;69560;52.206;21.018;2023-07-29T07:02:48;99675.83;;;19.98;65.71
80248;BME280;69560;52.206;21.018;2023-07-29T07:05:15;99671.73;;;20.00;65.72
80248;BME280;69560;52.206;21.018;2023-07-29T07:07:41;99670.88;;;20.07;65.78
80248;BME280;69560;52.206;21.018;2023-07-29T07:10:08;99669.94;;;20.18;66.07
80248;BME280;69560;52.206;21.018;2023-07-29T07:12:35;99673.27;;;20.26;66.12
80248;BME280;69560;52.206;21.018;2023-07-29T07:15:02;99670.42;;;20.32;65.93
80248;BME280;69560;52.206;21.018;2023-07-29T07:17:28;99667.23;;;20.42;65.96
80248;BME280;69560;52.206;21.018;2023-07-29T07:19:55;99665.05;;;20.53;65.84
80248;BME280;69560;52.206;21.018;2023-07-29T07:22:21;99668.52;;;20.58;65.40
80248;BME280;69560;52.206;21.018;2023-07-29T07:24:48;99670.86;;;20.58;65.18
80248;BME280;69560;52.206;21.018;2023-07-29T07:27:14;99671.01;;;20.61;65.25
80248;BME280;69560;52.206;21.018;2023-07-29T07:29:40;99671.73;;;20.63;65.07
80248;BME280;69560;52.206;21.018;2023-07-29T07:32:07;99668.83;;;20.63;64.90
80248;BME280;69560;52.206;21.018;2023-07-29T07:34:33;99670.59;;;20.64;64.78
80248;BME280;69560;52.206;21.018;2023-07-29T07:37:00;99665.52;;;20.66;64.71
80248;BME280;69560;52.206;21.018;2023-07-29T07:39:27;99662.44;;;20.70;64.63
80248;BME280;69560;52.206;21.018;2023-07-29T07:41:53;99655.27;;;20.72;64.59
80248;BME280;69560;52.206;21.018;2023-07-29T07:44:20;99654.63;;;20.78;64.60
80248;BME280;69560;52.206;21.018;2023-07-29T07:46:46;99658.66;;;20.85;64.50
80248;BME280;69560;52.206;21.018;2023-07-29T07:49:13;99664.34;;;20.94;64.13
80248;BME280;69560;52.206;21.018;2023-07-29T07:51:40;99666.83;;;21.05;64.23
80248;BME280;69560;52.206;21.018;2023-07-29T07:54:06;99673.64;;;21.19;64.29
80248;BME280;69560;52.206;21.018;2023-07-29T07:56:33;99673.77;;;21.34;64.08
80248;BME280;69560;52.206;21.018;2023-07-29T07:58:59;99673.81;;;21.44;64.23
80248;BME280;69560;52.206;21.018;2023-07-29T08:01:26;99675.48;;;21.59;63.93
80248;BME280;69560;52.206;21.018;2023-07-29T08:03:52;99672.30;;;21.69;63.58
80248;BME280;69560;52.206;21.018;2023-07-29T08:06:19;99671.44;;;21.78;63.54
80248;BME280;69560;52.206;21.018;2023-07-29T08:08:45;99667.83;;;21.87;63.15
80248;BME280;69560;52.206;21.018;2023-07-29T08:11:12;99665.83;;;22.00;63.23
80248;BME280;69560;52.206;21.018;2023-07-29T08:13:38;99668.84;;;22.04;62.84
80248;BME280;69560;52.206;21.018;2023-07-29T08:16:05;99666.48;;;22.00;62.25
80248;BME280;69560;52.206;21.018;2023-07-29T08:18:31;99666.33;;;21.95;62.13
80248;BME280;69560;52.206;21.018;2023-07-29T08:20:59;99664.02;;;21.94;61.83
80248;BME280;69560;52.206;21.018;2023-07-29T08:23:33;99669.29;;;21.98;61.98
80248;BME280;69560;52.206;21.018;2023-07-29T08:26:02;99668.58;;;21.95;61.54
80248;BME280;69560;52.206;21.018;2023-07-29T08:28:37;99669.21;;;21.89;61.34
80248;BME280;69560;52.206;21.018;2023-07-29T08:31:04;99667.45;;;21.82;61.16
80248;BME280;69560;52.206;21.018;2023-07-29T08:33:31;99662.44;;;21.74;60.95
80248;BME280;69560;52.206;21.018;2023-07-29T08:36:00;99658.98;;;21.77;60.98
80248;BME280;69560;52.206;21.018;2023-07-29T08:38:26;99657.02;;;21.78;60.91
80248;BME280;69560;52.206;21.018;2023-07-29T08:41:14;99657.16;;;21.81;60.97
80248;BME280;69560;52.206;21.018;2023-07-29T08:44:42;99653.64;;;21.91;60.89
80248;BME280;69560;52.206;21.018;2023-07-29T08:47:01;99653.63;;;22.00;60.80
80248;BME280;69560;52.206;21.018;2023-07-29T08:49:28;99650.65;;;22.09;60.88
80248;BME280;69560;52.206;21.018;2023-07-29T08:51:57;99653.65;;;22.25;61.10
80248;BME280;69560;52.206;21.018;2023-07-29T08:54:24;99654.93;;;22.43;60.88
80248;BME280;69560;52.206;21.018;2023-07-29T08:56:50;99651.66;;;22.55;60.29
80248;BME280;69560;52.206;21.018;2023-07-29T08:59:17;99651.05;;;22.60;59.77
80248;BME280;69560;52.206;21.018;2023-07-29T09:01:46;99646.99;;;22.75;60.00
80248;BME280;69560;52.206;21.018;2023-07-29T09:04:13;99648.67;;;22.86;59.64
80248;BME280;69560;52.206;21.018;2023-07-29T09:06:43;99648.35;;;22.98;59.51
80248;BME280;69560;52.206;21.018;2023-07-29T09:09:09;99643.54;;;23.18;59.22
80248;BME280;69560;52.206;21.018;2023-07-29T09:11:36;99648.00;;;23.34;58.88
80248;BME280;69560;52.206;21.018;2023-07-29T09:14:03;99646.83;;;23.41;58.22
80248;BME280;69560;52.206;21.018;2023-07-29T09:16:30;99649.21;;;23.51;58.17
80248;BME280;69560;52.206;21.018;2023-07-29T09:19:01;99648.95;;;23.65;58.08
80248;BME280;69560;52.206;21.018;2023-07-29T09:21:29;99649.92;;;23.83;58.10
80248;BME280;69560;52.206;21.018;2023-07-29T09:23:56;99644.35;;;24.03;58.13
80248;BME280;69560;52.206;21.018;2023-07-29T09:26:26;99643.89;;;24.22;57.92
80248;BME280;69560;52.206;21.018;2023-07-29T09:28:57;99643.50;;;24.32;57.36
80248;BME280;69560;52.206;21.018;2023-07-29T09:31:28;99645.89;;;24.32;56.67
80248;BME280;69560;52.206;21.018;2023-07-29T09:33:59;99645.52;;;24.29;56.17
80248;BME280;69560;52.206;21.018;2023-07-29T09:36:31;99645.65;;;24.30;56.06
80248;BME280;69560;52.206;21.018;2023-07-29T09:38:58;99641.46;;;24.35;55.96
80248;BME280;69560;52.206;21.018;2023-07-29T09:41:28;99635.90;;;24.51;56.08
80248;BME280;69560;52.206;21.018;2023-07-29T09:43:58;99636.77;;;24.67;55.73
80248;BME280;69560;52.206;21.018;2023-07-29T09:46:26;99636.09;;;24.81;55.50
80248;BME280;69560;52.206;21.018;2023-07-29T09:48:58;99635.35;;;24.88;55.16
80248;BME280;69560;52.206;21.018;2023-07-29T09:51:28;99635.46;;;25.01;54.89
80248;BME280;69560;52.206;21.018;2023-07-29T09:54:02;99626.39;;;25.15;54.61
80248;BME280;69560;52.206;21.018;2023-07-29T09:56:29;99629.85;;;25.30;54.59
80248;BME280;69560;52.206;21.018;2023-07-29T09:58:56;99631.92;;;25.50;54.59
80248;BME280;69560;52.206;21.018;2023-07-29T10:01:24;99627.48;;;25.70;54.41
80248;BME280;69560;52.206;21.018;2023-07-29T10:03:51;99622.48;;;25.88;54.10
80248;BME280;69560;52.206;21.018;2023-07-29T10:06:18;99616.96;;;26.06;53.51
80248;BME280;69560;52.206;21.018;2023-07-29T10:08:45;99619.28;;;26.22;53.24
80248;BME280;69560;52.206;21.018;2023-07-29T10:11:12;99613.98;;;26.31;52.87
80248;BME280;69560;52.206;21.018;2023-07-29T10:13:39;99613.77;;;26.48;52.64
80248;BME280;69560;52.206;21.018;2023-07-29T10:16:05;99612.55;;;26.66;52.55
80248;BME280;69560;52.206;21.018;2023-07-29T10:18:33;99620.77;;;26.82;52.05
80248;BME280;69560;52.206;21.018;2023-07-29T10:21:01;99620.42;;;26.93;51.61
80248;BME280;69560;52.206;21.018;2023-07-29T10:23:32;99620.92;;;27.08;51.37
80248;BME280;69560;52.206;21.018;2023-07-29T10:26:05;99619.55;;;27.25;50.79
80248;BME280;69560;52.206;21.018;2023-07-29T10:28:32;99614.36;;;27.40;50.58
80248;BME280;69560;52.206;21.018;2023-07-29T10:30:59;99614.16;;;27.57;50.08
80248;BME280;69560;52.206;21.018;2023-07-29T10:33:26;99614.68;;;27.68;49.35
80248;BME280;69560;52.206;21.018;2023-07-29T10:35:53;99612.92;;;27.82;49.07
80248;BME280;69560;52.206;21.018;2023-07-29T10:38:22;99613.16;;;27.92;48.51
80248;BME280;69560;52.206;21.018;2023-07-29T10:40:55;99612.11;;;27.88;47.61
80248;BME280;69560;52.206;21.018;2023-07-29T10:43:26;99607.32;;;27.90;47.66
80248;BME280;69560;52.206;21.018;2023-07-29T10:45:55;99610.84;;;27.90;47.04
80248;BME280;69560;52.206;21.018;2023-07-29T10:54:01;99601.83;;;28.16;46.28
80248;BME280;69560;52.206;21.018;2023-07-29T10:56:34;99599.71;;;28.12;46.00
80248;BME280;69560;52.206;21.018;2023-07-29T10:59:31;99597.92;;;28.25;46.31
80248;BME280;69560;52.206;21.018;2023-07-29T11:02:00;99596.84;;;28.42;46.20
80248;BME280;69560;52.206;21.018;2023-07-29T11:04:29;99593.65;;;28.54;45.91
80248;BME280;69560;52.206;21.018;2023-07-29T11:10:24;99599.05;;;28.72;44.90
80248;BME280;69560;52.206;21.018;2023-07-29T11:15:18;99590.16;;;28.90;44.83
80248;BME280;69560;52.206;21.018;2023-07-29T11:17:50;99587.55;;;29.05;44.69
80248;BME280;69560;52.206;21.018;2023-07-29T11:20:20;99586.75;;;29.21;44.55
80248;BME280;69560;52.206;21.018;2023-07-29T11:22:47;99582.34;;;29.41;44.36
80248;BME280;69560;52.206;21.018;2023-07-29T11:25:15;99579.61;;;29.57;43.91
80248;BME280;69560;52.206;21.018;2023-07-29T11:27:42;99573.27;;;29.70;43.84
80248;BME280;69560;52.206;21.018;2023-07-29T11:30:12;99570.73;;;29.81;43.42
80248;BME280;69560;52.206;21.018;2023-07-29T11:32:40;99572.05;;;29.86;43.24
80248;BME280;69560;52.206;21.018;2023-07-29T11:35:10;99565.35;;;29.94;43.07
80248;BME280;69560;52.206;21.018;2023-07-29T11:37:37;99562.56;;;30.03;42.81
80248;BME280;69560;52.206;21.018;2023-07-29T11:40:05;99556.65;;;30.08;42.52
80248;BME280;69560;52.206;21.018;2023-07-29T11:42:38;99553.27;;;30.10;42.33
80248;BME280;69560;52.206;21.018;2023-07-29T11:45:05;99547.94;;;30.19;42.27
80248;BME280;69560;52.206;21.018;2023-07-29T11:47:36;99542.23;;;30.24;42.03
80248;BME280;69560;52.206;21.018;2023-07-29T11:50:06;99542.28;;;30.30;42.03
80248;BME280;69560;52.206;21.018;2023-07-29T11:52:40;99543.14;;;30.38;41.90
80248;BME280;69560;52.206;21.018;2023-07-29T11:55:07;99547.71;;;30.39;41.61
80248;BME280;69560;52.206;21.018;2023-07-29T11:57:38;99538.39;;;30.35;41.35
80248;BME280;69560;52.206;21.018;2023-07-29T12:00:08;99540.61;;;30.26;40.78
80248;BME280;69560;52.206;21.018;2023-07-29T12:02:38;99535.80;;;30.06;40.42
80248;BME280;69560;52.206;21.018;2023-07-29T12:05:06;99537.32;;;30.03;40.52
80248;BME280;69560;52.206;21.018;2023-07-29T12:07:33;99525.45;;;30.04;40.59
80248;BME280;69560;52.206;21.018;2023-07-29T12:10:01;99524.38;;;30.08;40.72
80248;BME280;69560;52.206;21.018;2023-07-29T12:12:30;99526.92;;;30.15;40.66
80248;BME280;69560;52.206;21.018;2023-07-29T12:14:56;99523.34;;;30.18;40.55
80248;BME280;69560;52.206;21.018;2023-07-29T12:17:23;99522.55;;;30.19;40.16
80248;BME280;69560;52.206;21.018;2023-07-29T12:19:54;99519.58;;;30.08;39.83
80248;BME280;69560;52.206;21.018;2023-07-29T12:22:20;99521.80;;;29.96;39.78
80248;BME280;69560;52.206;21.018;2023-07-29T12:24:50;99515.66;;;29.92;39.62
80248;BME280;69560;52.206;21.018;2023-07-29T12:27:17;99514.66;;;29.87;39.69
80248;BME280;69560;52.206;21.018;2023-07-29T12:29:44;99510.91;;;29.81;39.53
80248;BME280;69560;52.206;21.018;2023-07-29T12:32:12;99508.25;;;29.79;39.69
80248;BME280;69560;52.206;21.018;2023-07-29T12:34:40;99503.32;;;29.79;39.71
80248;BME280;69560;52.206;21.018;2023-07-29T12:37:07;99505.41;;;29.68;39.39
80248;BME280;69560;52.206;21.018;2023-07-29T12:39:39;99508.52;;;29.54;39.24
80248;BME280;69560;52.206;21.018;2023-07-29T12:42:07;99498.33;;;29.49;39.47
80248;BME280;69560;52.206;21.018;2023-07-29T12:44:35;99500.52;;;29.48;39.75
80248;BME280;69560;52.206;21.018;2023-07-29T12:47:04;99500.54;;;29.45;39.76
80248;BME280;69560;52.206;21.018;2023-07-29T12:49:31;99499.55;;;29.29;39.24
80248;BME280;69560;52.206;21.018;2023-07-29T12:51:58;99499.42;;;29.22;39.44
80248;BME280;69560;52.206;21.018;2023-07-29T12:54:25;99498.71;;;29.18;39.27
80248;BME280;69560;52.206;21.018;2023-07-29T12:56:52;99498.27;;;29.21;39.55
80248;BME280;69560;52.206;21.018;2023-07-29T12:59:18;99496.41;;;29.24;39.44
80248;BME280;69560;52.206;21.018;2023-07-29T13:01:45;99496.01;;;29.25;39.51
80248;BME280;69560;52.206;21.018;2023-07-29T13:04:11;99490.50;;;29.25;39.61
80248;BME280;69560;52.206;21.018;2023-07-29T13:06:38;99482.72;;;29.26;39.44
80248;BME280;69560;52.206;21.018;2023-07-29T13:09:04;99482.34;;;29.21;39.38
80248;BME280;69560;52.206;21.018;2023-07-29T13:11:32;99487.66;;;29.16;39.39